Time;durP1;ratioP1;P1;durP2;ratioP2;P2;SDS_P1;SDS_P2;PMS_P1;PMS_P2;Temp;Humidity;BMP_temperature;BMP_pressure;BME280_temperature;BME280_humidity;BME280_pressure;Samples;Min_cycle;Max_cycle;Signal;HPM_P1;HPM_P2
2024/02/25 00:00:59;;;;;;;0.38;0.38;;;;;;;7.75;87.00;99690.28;5088913;28;20030;-68
2024/02/25 00:03:25;;;;;;;1.17;0.60;;;;;;;7.70;87.08;99691.38;5086245;28;20510;-68
2024/02/25 00:05:50;;;;;;;0.73;0.60;;;;;;;7.59;87.49;99690.41;5084256;28;20061;-68
2024/02/25 00:08:16;;;;;;;0.50;0.50;;;;;;;7.63;87.88;99695.81;5088457;28;20059;-69
2024/02/25 00:10:41;;;;;;;0.60;0.55;;;;;;;7.62;87.18;99688.91;5086741;28;20028;-68
2024/02/25 00:13:07;;;;;;;0.40;0.40;;;;;;;7.51;87.85;99687.97;5089917;28;20524;-68
2024/02/25 00:15:32;;;;;;;0.73;0.73;;;;;;;7.64;86.65;99692.00;5091018;28;20035;-68
2024/02/25 00:17:57;;;;;;;1.05;0.60;;;;;;;7.58;86.81;99694.22;5094352;28;20122;-68
2024/02/25 00:20:23;;;;;;;0.45;0.43;;;;;;;7.56;87.45;99695.72;5087912;28;20400;-68
2024/02/25 00:22:50;;;;;;;1.05;0.70;;;;;;;7.51;87.53;99696.00;5090261;28;20666;-68
2024/02/25 00:25:16;;;;;;;0.70;0.60;;;;;;;7.53;87.14;99691.06;5093654;28;20032;-69
2024/02/25 00:27:41;;;;;;;0.60;0.60;;;;;;;7.57;87.01;99694.59;5103190;27;20062;-68
2024/02/25 00:30:07;;;;;;;0.63;0.52;;;;;;;7.50;87.01;99702.50;5082298;28;20027;-68
2024/02/25 00:32:33;;;;;;;0.52;0.52;;;;;;;7.43;87.51;99697.81;5074866;28;20060;-68
2024/02/25 00:35:00;;;;;;;0.65;0.47;;;;;;;7.28;87.78;99691.41;5089460;28;20070;-68
2024/02/25 00:37:26;;;;;;;1.00;0.60;;;;;;;7.27;88.39;99694.44;5088184;28;20096;-68
2024/02/25 00:39:51;;;;;;;0.50;0.50;;;;;;;7.36;87.57;99696.88;5090788;28;20048;-68
2024/02/25 00:42:17;;;;;;;1.08;0.50;;;;;;;7.33;87.53;99693.03;5091404;28;20039;-68
2024/02/25 00:44:46;;;;;;;0.60;0.60;;;;;;;7.39;87.30;99698.88;5091208;28;20092;-68
2024/02/25 00:47:11;;;;;;;1.10;0.63;;;;;;;7.35;87.40;99690.00;5124253;27;20515;-68
2024/02/25 00:49:37;;;;;;;0.47;0.47;;;;;;;7.19;88.05;99698.91;5092360;28;20028;-69
2024/02/25 00:52:02;;;;;;;0.95;0.88;;;;;;;7.08;88.77;99687.22;5090903;28;20449;-69
2024/02/25 00:54:28;;;;;;;0.65;0.50;;;;;;;7.15;88.14;99692.72;5091260;28;20058;-69
2024/02/25 00:56:54;;;;;;;0.63;0.63;;;;;;;6.93;89.24;99688.09;5096449;28;20120;-69
2024/02/25 00:59:19;;;;;;;1.27;1.05;;;;;;;7.14;88.20;99690.41;5093737;28;20083;-69
2024/02/25 01:01:46;;;;;;;0.90;0.40;;;;;;;7.19;87.64;99685.53;5078123;28;20073;-68
2024/02/25 01:04:12;;;;;;;3.38;0.70;;;;;;;7.13;87.65;99683.47;5088762;28;20038;-69
2024/02/25 01:06:37;;;;;;;0.95;0.95;;;;;;;6.99;88.80;99677.88;5094464;28;20036;-68
2024/02/25 01:09:03;;;;;;;0.40;0.40;;;;;;;7.01;88.70;99686.31;5097532;28;20092;-69
2024/02/25 01:11:29;;;;;;;0.57;0.50;;;;;;;6.92;88.01;99675.84;5093720;28;20028;-68
2024/02/25 01:13:55;;;;;;;3.63;0.68;;;;;;;6.90;89.14;99686.13;5087509;28;20042;-69
2024/02/25 01:16:20;;;;;;;0.68;0.60;;;;;;;6.87;89.26;99686.81;5093458;28;20178;-69
2024/02/25 01:18:46;;;;;;;0.68;0.60;;;;;;;6.84;88.95;99695.56;5094936;28;20024;-68
2024/02/25 01:21:11;;;;;;;5.15;0.70;;;;;;;6.85;89.19;99688.31;5091600;28;20449;-69
2024/02/25 01:23:36;;;;;;;0.70;0.68;;;;;;;6.96;88.29;99679.38;5097259;28;20509;-68
2024/02/25 01:26:02;;;;;;;0.75;0.60;;;;;;;6.88;88.81;99691.06;5091643;28;20424;-68
2024/02/25 01:28:27;;;;;;;1.33;0.65;;;;;;;6.78;89.36;99685.50;5089881;28;20028;-68
2024/02/25 01:30:53;;;;;;;1.02;0.77;;;;;;;6.91;88.45;99681.56;5094713;28;20063;-69
2024/02/25 01:33:18;;;;;;;1.33;0.80;;;;;;;6.85;88.83;99682.97;5095228;28;20032;-68
2024/02/25 01:35:44;;;;;;;0.75;0.75;;;;;;;6.85;88.45;99681.06;5093000;28;20555;-68
2024/02/25 01:38:10;;;;;;;1.15;0.90;;;;;;;6.61;89.21;99683.25;5092196;28;20442;-69
2024/02/25 01:40:36;;;;;;;1.05;0.57;;;;;;;6.68;89.45;99673.47;5095977;28;20156;-69
2024/02/25 01:43:08;;;;;;;0.60;0.60;;;;;;;6.58;89.80;99674.03;5091831;28;20044;-69
2024/02/25 01:45:34;;;;;;;1.20;1.10;;;;;;;6.69;88.99;99677.69;5090962;28;20035;-68
2024/02/25 01:48:00;;;;;;;2.33;0.73;;;;;;;6.67;88.75;99679.16;5094387;28;20174;-69
2024/02/25 01:50:27;;;;;;;0.70;0.70;;;;;;;6.71;88.41;99686.16;5091537;28;20039;-69
2024/02/25 01:52:54;;;;;;;0.95;0.85;;;;;;;6.71;88.08;99680.78;5091822;28;20027;-68
2024/02/25 01:55:22;;;;;;;0.60;0.60;;;;;;;6.65;87.64;99682.19;5093404;28;20059;-68
2024/02/25 01:57:47;;;;;;;0.98;0.88;;;;;;;6.69;88.56;99682.28;5091230;28;20481;-68
2024/02/25 02:00:16;;;;;;;1.50;0.80;;;;;;;6.71;88.69;99667.41;5090007;28;20045;-68
2024/02/25 02:02:41;;;;;;;0.60;0.60;;;;;;;6.74;87.99;99668.59;5125473;27;20110;-69
2024/02/25 02:05:08;;;;;;;0.77;0.75;;;;;;;6.62;88.51;99666.09;5090995;28;20111;-68
2024/02/25 02:07:34;;;;;;;1.17;0.73;;;;;;;6.70;87.85;99673.88;5094579;28;20031;-69
2024/02/25 02:09:59;;;;;;;0.50;0.50;;;;;;;6.64;87.67;99672.63;5093114;28;20044;-69
2024/02/25 02:12:25;;;;;;;2.00;0.68;;;;;;;6.76;86.98;99667.13;5090741;28;20134;-68
2024/02/25 02:14:50;;;;;;;0.80;0.80;;;;;;;6.66;86.98;99658.91;5093892;28;20036;-68
2024/02/25 02:17:16;;;;;;;0.55;0.55;;;;;;;6.57;87.25;99669.81;5090346;28;20548;-69
2024/02/25 02:19:46;;;;;;;2.97;0.88;;;;;;;6.46;88.69;99668.06;5089080;28;20441;-69
2024/02/25 02:22:12;;;;;;;0.73;0.73;;;;;;;6.58;87.50;99660.66;5091254;28;20062;-68
2024/02/25 02:24:37;;;;;;;0.70;0.70;;;;;;;6.59;87.12;99662.22;5089947;28;20063;-68
2024/02/25 02:27:03;;;;;;;1.00;0.93;;;;;;;6.52;87.84;99661.28;5093186;28;20039;-68
2024/02/25 02:29:28;;;;;;;1.90;0.98;;;;;;;6.50;87.87;99669.69;5089494;28;20035;-68
2024/02/25 02:31:56;;;;;;;0.68;0.68;;;;;;;6.59;87.03;99656.88;5089063;28;20036;-68
2024/02/25 02:34:22;;;;;;;0.80;0.80;;;;;;;6.62;85.96;99647.38;5092843;28;20063;-68
2024/02/25 02:36:49;;;;;;;0.60;0.60;;;;;;;6.50;86.61;99655.53;5091325;28;20509;-68
2024/02/25 02:39:15;;;;;;;1.75;0.80;;;;;;;6.58;87.14;99657.97;5089016;28;20401;-69
2024/02/25 02:41:40;;;;;;;0.50;0.50;;;;;;;6.52;86.76;99651.38;5106630;27;20027;-68
2024/02/25 02:44:06;;;;;;;0.50;0.50;;;;;;;6.56;86.54;99648.78;5091002;28;20469;-68
2024/02/25 02:46:38;;;;;;;1.50;0.80;;;;;;;6.60;87.16;99650.38;5091909;28;20039;-68
2024/02/25 02:49:03;;;;;;;0.73;0.50;;;;;;;6.62;86.65;99653.47;5088639;28;20038;-68
2024/02/25 02:51:29;;;;;;;0.60;0.55;;;;;;;6.52;86.60;99654.06;5107406;27;20040;-69
2024/02/25 02:53:54;;;;;;;0.28;0.28;;;;;;;6.53;86.69;99649.47;5093027;28;20063;-68
2024/02/25 02:56:20;;;;;;;0.57;0.38;;;;;;;6.65;86.19;99657.34;5095617;28;20039;-69
2024/02/25 02:58:48;;;;;;;1.90;0.73;;;;;;;6.47;86.22;99656.22;5090168;28;20028;-68
2024/02/25 03:01:15;;;;;;;0.50;0.40;;;;;;;6.47;86.28;99662.34;5091208;28;20484;-68
2024/02/25 03:03:40;;;;;;;4.75;0.70;;;;;;;6.39;86.47;99660.66;5094028;28;20131;-68
2024/02/25 03:06:06;;;;;;;1.95;0.70;;;;;;;6.47;86.64;99654.31;5093581;28;20500;-68
2024/02/25 03:08:32;;;;;;;1.40;0.60;;;;;;;6.58;85.24;99647.28;5124514;27;20034;-69
2024/02/25 03:10:58;;;;;;;0.50;0.50;;;;;;;6.61;85.22;99649.25;5107214;28;20031;-68
2024/02/25 03:13:23;;;;;;;1.27;0.50;;;;;;;6.49;84.66;99656.63;5095782;28;20024;-69
2024/02/25 03:15:49;;;;;;;0.50;0.50;;;;;;;6.42;85.88;99641.25;5093263;28;20050;-69
2024/02/25 03:18:14;;;;;;;0.68;0.60;;;;;;;6.48;85.39;99650.53;5088993;28;20036;-69
2024/02/25 03:20:41;;;;;;;0.50;0.50;;;;;;;6.53;85.58;99646.78;5090884;28;20462;-68
2024/02/25 03:23:07;;;;;;;0.40;0.40;;;;;;;6.45;86.02;99643.19;5091364;28;20508;-69
2024/02/25 03:25:33;;;;;;;0.60;0.60;;;;;;;6.53;85.12;99644.91;5094877;28;20028;-68
2024/02/25 03:27:59;;;;;;;0.82;0.50;;;;;;;6.35;85.94;99643.75;5089103;28;20027;-68
2024/02/25 03:30:24;;;;;;;0.40;0.40;;;;;;;6.43;85.73;99648.13;5074505;28;20393;-68
2024/02/25 03:32:49;;;;;;;0.70;0.70;;;;;;;6.47;85.25;99643.63;5091585;28;20035;-68
2024/02/25 03:35:15;;;;;;;0.40;0.40;;;;;;;6.54;83.85;99637.66;5089840;28;20040;-68
2024/02/25 03:37:44;;;;;;;1.00;0.60;;;;;;;6.53;83.77;99639.53;5092943;28;20038;-68
2024/02/25 03:40:10;;;;;;;2.88;0.50;;;;;;;6.37;84.60;99641.50;5092911;28;20078;-69
2024/02/25 03:42:35;;;;;;;0.85;0.55;;;;;;;6.25;86.14;99644.34;5091539;28;20484;-68
2024/02/25 03:45:01;;;;;;;0.98;0.77;;;;;;;6.29;85.90;99639.84;5091238;28;20105;-68
2024/02/25 03:47:26;;;;;;;1.05;0.50;;;;;;;6.31;85.66;99642.91;5091495;28;20032;-68
2024/02/25 03:49:52;;;;;;;1.90;0.73;;;;;;;6.38;85.07;99649.19;5092085;28;20028;-68
2024/02/25 03:52:17;;;;;;;1.35;0.73;;;;;;;6.44;85.06;99640.88;5092775;28;20031;-68
2024/02/25 03:54:46;;;;;;;0.50;0.50;;;;;;;6.28;84.86;99636.38;5095421;28;20039;-68
2024/02/25 03:57:12;;;;;;;1.15;0.77;;;;;;;6.24;85.75;99634.75;5090379;28;20059;-69
2024/02/25 03:59:37;;;;;;;1.30;0.77;;;;;;;6.36;85.53;99630.06;5092732;28;20058;-68
2024/02/25 04:02:03;;;;;;;0.65;0.65;;;;;;;6.27;84.84;99624.13;5090079;28;20067;-68
2024/02/25 04:04:29;;;;;;;3.15;0.63;;;;;;;6.28;85.28;99623.00;5099157;28;20016;-68
2024/02/25 04:06:54;;;;;;;1.42;0.88;;;;;;;6.38;84.86;99622.47;5088859;28;20040;-68
2024/02/25 04:09:20;;;;;;;0.52;0.50;;;;;;;6.29;85.15;99626.47;5088940;28;20032;-69
2024/02/25 04:11:45;;;;;;;2.95;0.80;;;;;;;6.32;84.43;99623.09;5093919;28;20043;-68
2024/02/25 04:14:11;;;;;;;0.60;0.60;;;;;;;6.30;85.59;99625.34;5089110;28;20055;-69
2024/02/25 04:16:36;;;;;;;0.82;0.65;;;;;;;6.25;85.55;99620.28;5092601;28;20043;-68
2024/02/25 04:19:02;;;;;;;0.82;0.47;;;;;;;6.38;84.96;99619.78;5087463;28;20123;-68
2024/02/25 04:21:27;;;;;;;0.60;0.50;;;;;;;6.46;84.62;99619.91;5089532;28;20028;-68
2024/02/25 04:23:52;;;;;;;0.50;0.50;;;;;;;6.39;83.96;99618.66;5087348;28;20609;-68
2024/02/25 04:26:18;;;;;;;0.52;0.52;;;;;;;6.21;85.73;99622.09;5077863;28;20042;-69
2024/02/25 04:28:43;;;;;;;0.60;0.60;;;;;;;6.32;84.74;99604.38;5096324;28;20037;-68
2024/02/25 04:31:09;;;;;;;0.98;0.63;;;;;;;6.34;85.19;99618.16;5091088;28;20048;-68
2024/02/25 04:33:34;;;;;;;1.10;0.73;;;;;;;6.41;84.57;99612.19;5096319;28;20062;-69
2024/02/25 04:36:00;;;;;;;0.55;0.55;;;;;;;6.51;84.40;99620.41;5088617;28;20158;-68
2024/02/25 04:38:25;;;;;;;0.50;0.50;;;;;;;6.43;85.01;99613.38;5097006;28;20108;-68
2024/02/25 04:40:53;;;;;;;0.40;0.40;;;;;;;6.43;85.24;99609.94;5093611;28;20047;-68
2024/02/25 04:43:18;;;;;;;0.60;0.60;;;;;;;6.45;84.78;99613.00;5094534;28;20107;-68
2024/02/25 04:45:45;;;;;;;0.30;0.30;;;;;;;6.47;84.54;99614.22;5093520;28;20182;-69
2024/02/25 04:48:10;;;;;;;0.50;0.50;;;;;;;6.36;85.00;99615.91;5090268;28;20032;-69
2024/02/25 04:50:36;;;;;;;1.08;0.50;;;;;;;6.53;84.63;99610.13;5090556;28;20030;-69
2024/02/25 04:53:03;;;;;;;0.38;0.38;;;;;;;6.57;83.83;99607.53;5095842;28;20370;-68
2024/02/25 04:55:28;;;;;;;0.82;0.50;;;;;;;6.65;83.33;99607.31;5093781;28;20047;-68
2024/02/25 04:57:54;;;;;;;0.50;0.50;;;;;;;6.56;83.94;99603.31;5092834;28;20048;-68
2024/02/25 05:00:19;;;;;;;2.20;0.70;;;;;;;6.45;85.13;99600.41;5095433;28;20118;-69
2024/02/25 05:02:45;;;;;;;0.77;0.77;;;;;;;6.61;84.37;99598.44;5087007;28;20396;-68
2024/02/25 05:05:10;;;;;;;1.00;0.85;;;;;;;6.69;84.33;99589.44;5088249;28;20089;-68
2024/02/25 05:07:35;;;;;;;0.38;0.38;;;;;;;6.64;84.17;99586.28;5128840;27;20023;-68
2024/02/25 05:10:01;;;;;;;2.88;0.50;;;;;;;6.67;84.19;99589.00;5093332;28;20498;-68
2024/02/25 05:12:26;;;;;;;0.30;0.30;;;;;;;6.74;83.43;99589.13;5096994;28;20480;-68
2024/02/25 05:14:52;;;;;;;0.40;0.40;;;;;;;6.69;83.35;99589.44;5093706;28;20477;-68
2024/02/25 05:17:17;;;;;;;0.90;0.80;;;;;;;6.73;83.53;99590.28;5093447;28;20038;-68
2024/02/25 05:19:43;;;;;;;0.40;0.40;;;;;;;6.65;83.60;99582.47;5091315;28;20103;-68
2024/02/25 05:22:08;;;;;;;0.70;0.70;;;;;;;6.61;84.57;99582.41;5090956;28;20137;-69
2024/02/25 05:24:35;;;;;;;0.50;0.50;;;;;;;6.83;83.20;99578.22;5094013;28;20028;-68
2024/02/25 05:27:01;;;;;;;0.32;0.32;;;;;;;6.77;83.08;99575.06;5092256;28;20015;-68
2024/02/25 05:29:26;;;;;;;0.50;0.50;;;;;;;6.85;83.61;99575.94;5080873;28;20554;-69
2024/02/25 05:31:51;;;;;;;0.95;0.50;;;;;;;6.89;83.04;99576.78;5093510;28;20039;-68
2024/02/25 05:34:17;;;;;;;1.17;0.63;;;;;;;6.92;82.73;99571.50;5084438;28;20613;-68
2024/02/25 05:36:42;;;;;;;0.40;0.40;;;;;;;6.83;82.88;99568.25;5090037;28;20062;-68
2024/02/25 05:39:08;;;;;;;0.50;0.50;;;;;;;6.82;83.52;99572.06;5078581;28;20027;-68
2024/02/25 05:41:34;;;;;;;0.40;0.40;;;;;;;6.92;82.32;99574.16;5092242;28;20497;-68
2024/02/25 05:44:00;;;;;;;1.05;0.73;;;;;;;6.84;83.19;99569.81;5094470;28;20090;-68
2024/02/25 05:46:25;;;;;;;0.50;0.45;;;;;;;6.86;83.10;99569.47;5109902;27;20024;-68
2024/02/25 05:48:51;;;;;;;0.43;0.43;;;;;;;6.93;82.57;99567.66;5090405;28;20451;-68
2024/02/25 05:51:17;;;;;;;0.47;0.47;;;;;;;6.89;82.87;99564.16;5093939;28;20039;-68
2024/02/25 05:53:42;;;;;;;1.15;0.30;;;;;;;6.95;81.98;99573.44;5088878;28;20153;-68
2024/02/25 05:56:07;;;;;;;0.73;0.50;;;;;;;7.05;81.25;99574.75;5093101;28;20079;-68
2024/02/25 05:58:35;;;;;;;0.47;0.45;;;;;;;6.80;81.51;99573.56;5092229;28;20043;-68
2024/02/25 06:01:01;;;;;;;0.40;0.40;;;;;;;6.94;81.94;99563.88;5092820;28;20485;-68
2024/02/25 06:03:26;;;;;;;0.90;0.52;;;;;;;6.94;82.04;99573.81;5093144;28;20073;-68
2024/02/25 06:05:56;;;;;;;0.30;0.30;;;;;;;6.97;80.59;99563.16;5094684;28;20031;-68
2024/02/25 06:08:23;;;;;;;0.75;0.75;;;;;;;6.99;80.66;99566.25;5092412;28;20114;-68
2024/02/25 06:10:51;;;;;;;0.30;0.30;;;;;;;6.81;81.53;99559.06;5093079;28;20030;-68
2024/02/25 06:13:16;;;;;;;0.65;0.65;;;;;;;6.85;81.75;99563.31;5095332;28;21277;-68
2024/02/25 06:15:42;;;;;;;1.27;0.52;;;;;;;6.77;82.14;99564.34;5096166;28;20066;-68
2024/02/25 06:18:10;;;;;;;0.55;0.55;;;;;;;6.86;82.15;99556.84;5095891;28;20114;-68
2024/02/25 06:20:35;;;;;;;0.60;0.60;;;;;;;7.05;80.15;99564.81;5094526;28;20111;-68
2024/02/25 06:23:01;;;;;;;0.40;0.40;;;;;;;7.11;79.94;99563.41;5095849;28;20028;-68
2024/02/25 06:25:26;;;;;;;2.05;0.70;;;;;;;6.88;81.08;99561.84;5094315;28;20487;-68
2024/02/25 06:27:52;;;;;;;0.63;0.60;;;;;;;6.88;80.67;99559.94;5090291;28;20618;-68
2024/02/25 06:30:17;;;;;;;0.30;0.30;;;;;;;6.88;81.53;99554.59;5091986;28;20023;-68
2024/02/25 06:32:44;;;;;;;0.68;0.68;;;;;;;7.04;81.04;99557.94;5090543;28;20035;-68
2024/02/25 06:35:09;;;;;;;0.40;0.40;;;;;;;7.04;81.08;99563.28;5096290;28;20544;-68
2024/02/25 06:37:35;;;;;;;1.00;0.77;;;;;;;7.03;80.40;99560.94;5089858;28;20036;-68
2024/02/25 06:40:03;;;;;;;0.57;0.38;;;;;;;7.10;79.54;99561.84;5092816;28;20026;-68
2024/02/25 06:42:28;;;;;;;0.75;0.55;;;;;;;7.00;80.22;99562.44;5094049;28;20468;-68
2024/02/25 06:44:53;;;;;;;0.60;0.55;;;;;;;6.90;81.71;99565.72;5090683;28;20042;-69
2024/02/25 06:47:19;;;;;;;0.70;0.70;;;;;;;6.96;81.62;99572.31;5095159;28;20036;-68
2024/02/25 06:49:44;;;;;;;0.63;0.63;;;;;;;7.22;79.14;99572.34;5093988;28;20424;-68
2024/02/25 06:52:10;;;;;;;0.45;0.45;;;;;;;7.13;80.07;99573.72;5093714;28;20643;-68
2024/02/25 06:54:35;;;;;;;0.43;0.43;;;;;;;7.22;79.87;99577.72;5087594;28;20032;-68
2024/02/25 06:57:01;;;;;;;0.98;0.40;;;;;;;7.12;80.74;99580.97;5089538;28;20089;-68
2024/02/25 06:59:26;;;;;;;0.25;0.25;;;;;;;6.84;80.26;99575.16;5093732;28;20031;-68
2024/02/25 07:01:52;;;;;;;1.73;0.50;;;;;;;7.00;81.08;99575.84;5090406;28;20040;-68
2024/02/25 07:04:18;;;;;;;0.22;0.22;;;;;;;7.06;80.69;99574.41;5093670;28;20123;-68
2024/02/25 07:06:43;;;;;;;0.43;0.43;;;;;;;7.08;80.33;99580.16;5085385;28;20028;-68
2024/02/25 07:09:09;;;;;;;0.60;0.60;;;;;;;7.14;79.03;99572.63;5091781;28;20036;-68
2024/02/25 07:11:34;;;;;;;1.00;0.60;;;;;;;7.18;79.66;99571.53;5090975;28;20036;-68
2024/02/25 07:14:00;;;;;;;0.95;0.50;;;;;;;7.08;79.49;99572.13;5096101;28;20040;-68
2024/02/25 07:16:26;;;;;;;0.30;0.30;;;;;;;7.22;79.98;99583.06;5087738;28;20024;-68
2024/02/25 07:18:52;;;;;;;0.50;0.50;;;;;;;7.34;78.83;99579.41;5089158;28;20050;-68
2024/02/25 07:21:17;;;;;;;0.73;0.60;;;;;;;7.23;79.28;99591.88;5086786;28;20122;-68
2024/02/25 07:23:43;;;;;;;0.50;0.50;;;;;;;7.25;79.22;99584.25;5088600;28;20024;-69
2024/02/25 07:26:10;;;;;;;0.30;0.30;;;;;;;7.17;79.85;99583.38;5088279;28;20051;-68
2024/02/25 07:28:40;;;;;;;0.90;0.55;;;;;;;7.29;79.38;99588.56;5088607;28;20036;-68
2024/02/25 07:31:13;;;;;;;0.38;0.38;;;;;;;7.28;79.14;99578.19;5091448;28;20114;-69
2024/02/25 07:33:38;;;;;;;1.05;0.60;;;;;;;7.47;78.35;99586.13;5088747;28;20040;-68
2024/02/25 07:36:11;;;;;;;0.52;0.30;;;;;;;7.44;78.42;99581.50;5086117;28;20115;-68
2024/02/25 07:38:38;;;;;;;0.60;0.40;;;;;;;7.36;78.44;99582.50;5089588;28;20118;-68
2024/02/25 07:41:04;;;;;;;0.60;0.60;;;;;;;7.32;79.28;99584.38;5088512;28;20386;-68
2024/02/25 07:43:29;;;;;;;0.50;0.50;;;;;;;7.41;78.06;99589.47;5089252;28;20119;-69
2024/02/25 07:45:54;;;;;;;0.65;0.38;;;;;;;7.28;79.30;99589.66;5072426;28;20020;-69
2024/02/25 07:48:20;;;;;;;0.40;0.40;;;;;;;7.35;78.85;99588.22;5089249;28;20031;-69
2024/02/25 07:50:45;;;;;;;2.92;0.57;;;;;;;7.45;79.24;99596.44;5090005;28;20008;-68
2024/02/25 07:53:11;;;;;;;0.68;0.68;;;;;;;7.55;78.39;99587.03;5087102;28;20035;-69
2024/02/25 07:55:36;;;;;;;0.30;0.30;;;;;;;7.65;78.56;99581.03;5087518;28;20043;-68
2024/02/25 07:58:05;;;;;;;0.60;0.50;;;;;;;7.60;78.11;99579.44;5086249;28;20035;-69
2024/02/25 08:00:30;;;;;;;0.70;0.70;;;;;;;7.57;78.21;99592.78;5089891;28;20040;-68
2024/02/25 08:02:56;;;;;;;0.30;0.30;;;;;;;7.62;78.43;99582.53;5091032;28;20121;-68
2024/02/25 08:05:21;;;;;;;0.32;0.32;;;;;;;7.71;78.53;99583.03;5091692;28;20047;-69
2024/02/25 08:07:48;;;;;;;0.95;0.52;;;;;;;7.75;78.03;99585.78;5090381;28;20488;-69
2024/02/25 08:10:15;;;;;;;0.60;0.60;;;;;;;7.65;77.89;99581.03;5095206;28;20022;-69
2024/02/25 08:12:41;;;;;;;0.45;0.45;;;;;;;7.52;79.24;99574.34;5097048;28;20067;-69
2024/02/25 08:15:07;;;;;;;4.10;0.40;;;;;;;7.62;79.40;99571.03;5091600;28;20055;-68
2024/02/25 08:17:32;;;;;;;0.85;0.63;;;;;;;7.82;77.63;99573.22;5091455;28;20046;-68
2024/02/25 08:19:57;;;;;;;1.88;0.88;;;;;;;7.65;78.66;99579.13;5097038;28;20023;-68
2024/02/25 08:22:23;;;;;;;0.55;0.55;;;;;;;7.82;78.85;99578.59;5090158;28;20115;-69
2024/02/25 08:24:49;;;;;;;0.40;0.40;;;;;;;7.80;78.89;99574.75;5091262;28;20115;-69
2024/02/25 08:27:15;;;;;;;6.43;0.50;;;;;;;7.90;78.55;99582.91;5089491;28;20039;-68
2024/02/25 08:29:43;;;;;;;0.50;0.50;;;;;;;7.88;78.63;99587.09;5088308;28;20036;-69
2024/02/25 08:32:09;;;;;;;0.65;0.63;;;;;;;7.86;79.70;99581.31;5091325;28;20456;-69
2024/02/25 08:34:34;;;;;;;0.55;0.50;;;;;;;8.01;78.18;99575.78;5088948;28;20055;-68
2024/02/25 08:37:00;;;;;;;0.50;0.50;;;;;;;8.02;79.07;99574.66;5094096;28;20054;-68
2024/02/25 08:39:25;;;;;;;0.70;0.70;;;;;;;7.98;79.53;99581.09;5088463;28;20135;-68
2024/02/25 08:41:51;;;;;;;0.30;0.30;;;;;;;7.97;80.00;99577.66;5093858;28;20048;-68
2024/02/25 08:44:16;;;;;;;0.40;0.40;;;;;;;7.99;80.97;99575.38;5094704;28;20066;-68
2024/02/25 08:46:42;;;;;;;4.07;0.85;;;;;;;8.06;81.98;99570.13;5092589;28;20032;-69
2024/02/25 08:49:07;;;;;;;0.40;0.40;;;;;;;8.22;79.80;99572.59;5093564;28;20019;-69
2024/02/25 08:51:34;;;;;;;0.45;0.45;;;;;;;8.28;80.42;99575.75;5090299;28;20043;-69
2024/02/25 08:54:00;;;;;;;0.88;0.68;;;;;;;8.42;78.32;99582.06;5089943;28;20054;-69
2024/02/25 08:56:25;;;;;;;1.50;0.65;;;;;;;8.55;78.25;99580.69;5093324;28;20040;-69
2024/02/25 08:58:51;;;;;;;0.65;0.50;;;;;;;8.53;78.41;99579.50;5092496;28;20036;-69
2024/02/25 09:01:16;;;;;;;0.40;0.40;;;;;;;8.63;77.92;99574.22;5094178;28;20051;-69
2024/02/25 09:03:42;;;;;;;0.68;0.60;;;;;;;8.64;77.12;99575.78;5095077;28;20032;-69
2024/02/25 09:06:08;;;;;;;0.60;0.38;;;;;;;8.69;77.08;99574.69;5091135;28;20109;-68
2024/02/25 09:08:34;;;;;;;0.88;0.60;;;;;;;8.72;76.75;99572.03;5095499;28;20057;-68
2024/02/25 09:10:59;;;;;;;0.63;0.63;;;;;;;8.86;75.46;99574.88;5094525;28;20031;-68
2024/02/25 09:13:25;;;;;;;1.42;0.90;;;;;;;8.90;75.43;99574.91;5091625;28;20110;-69
2024/02/25 09:15:50;;;;;;;0.40;0.30;;;;;;;8.78;75.22;99575.94;5093061;28;20024;-68
2024/02/25 09:18:16;;;;;;;0.52;0.47;;;;;;;8.81;75.95;99575.19;5093926;28;20062;-69
2024/02/25 09:20:41;;;;;;;0.73;0.50;;;;;;;8.68;75.62;99571.22;5091395;28;20043;-68
2024/02/25 09:23:07;;;;;;;0.75;0.35;;;;;;;8.66;77.27;99573.50;5093684;28;20026;-69
2024/02/25 09:25:33;;;;;;;1.42;0.80;;;;;;;8.76;76.61;99572.06;5092630;28;20075;-68
2024/02/25 09:28:03;;;;;;;1.20;0.38;;;;;;;8.73;77.07;99578.94;5096250;28;20031;-68
2024/02/25 09:30:29;;;;;;;0.40;0.40;;;;;;;8.98;74.48;99574.56;5097339;28;20020;-69
2024/02/25 09:32:55;;;;;;;0.60;0.50;;;;;;;8.97;74.57;99575.72;5093475;28;20039;-69
2024/02/25 09:35:21;;;;;;;0.40;0.40;;;;;;;8.94;74.95;99573.75;5093462;28;20031;-69
2024/02/25 09:37:46;;;;;;;0.30;0.30;;;;;;;9.00;73.95;99571.53;5092969;28;20054;-68
2024/02/25 09:40:12;;;;;;;0.60;0.60;;;;;;;9.01;73.52;99565.78;5091070;28;20071;-69
2024/02/25 09:42:42;;;;;;;5.55;0.60;;;;;;;9.00;74.79;99577.66;5091048;28;20021;-68
2024/02/25 09:45:18;;;;;;;1.00;0.70;;;;;;;9.06;73.36;99573.50;5093907;28;20024;-69
2024/02/25 09:47:44;;;;;;;0.70;0.70;;;;;;;9.12;73.80;99573.16;5075715;28;20064;-68
2024/02/25 09:50:11;;;;;;;1.27;0.80;;;;;;;9.17;73.85;99580.88;5086048;28;20113;-69
2024/02/25 09:52:37;;;;;;;0.85;0.80;;;;;;;9.14;73.56;99570.88;5089389;28;20477;-68
2024/02/25 09:55:04;;;;;;;2.92;0.60;;;;;;;9.29;73.40;99575.22;5092983;28;20031;-69
2024/02/25 09:57:30;;;;;;;1.13;0.43;;;;;;;9.39;74.26;99569.91;5091724;28;20115;-69
2024/02/25 09:59:55;;;;;;;1.38;0.52;;;;;;;9.54;72.50;99566.16;5092556;28;20032;-69
2024/02/25 10:02:21;;;;;;;0.70;0.60;;;;;;;9.49;71.63;99571.13;5092084;28;20102;-68
2024/02/25 10:04:46;;;;;;;0.20;0.20;;;;;;;9.44;72.28;99579.56;5087567;28;20043;-69
2024/02/25 10:07:15;;;;;;;1.08;1.00;;;;;;;9.52;72.14;99573.09;5090735;28;20039;-68
2024/02/25 10:09:42;;;;;;;0.30;0.30;;;;;;;9.41;72.48;99572.22;5086897;28;20035;-69
2024/02/25 10:12:09;;;;;;;0.50;0.50;;;;;;;9.50;72.70;99561.94;5102990;27;20040;-68
2024/02/25 10:14:36;;;;;;;1.35;0.35;;;;;;;9.55;72.42;99575.78;5091845;28;20413;-68
2024/02/25 10:17:06;;;;;;;0.50;0.50;;;;;;;9.53;72.57;99563.88;5088865;28;20040;-68
2024/02/25 10:19:32;;;;;;;0.20;0.20;;;;;;;9.49;72.82;99568.44;5086168;28;20035;-68
2024/02/25 10:22:09;;;;;;;2.42;1.00;;;;;;;9.66;72.64;99565.09;5090217;28;20031;-68
2024/02/25 10:24:35;;;;;;;0.63;0.50;;;;;;;9.63;72.22;99569.31;5087672;28;20024;-69
2024/02/25 10:27:08;;;;;;;0.32;0.32;;;;;;;9.73;71.11;99574.00;5085129;28;20523;-69
2024/02/25 10:29:52;;;;;;;0.70;0.32;;;;;;;9.72;72.13;99568.97;5094148;28;20484;-68
2024/02/25 10:32:28;;;;;;;4.43;0.50;;;;;;;9.75;71.51;99557.47;5092263;28;20032;-68
2024/02/25 10:34:58;;;;;;;0.40;0.40;;;;;;;9.90;71.79;99567.16;5089921;28;20061;-69
2024/02/25 10:37:25;;;;;;;0.60;0.60;;;;;;;10.04;70.93;99553.78;5091567;28;20123;-68
2024/02/25 10:39:54;;;;;;;2.67;0.68;;;;;;;10.14;70.61;99558.47;5089793;28;20032;-68
2024/02/25 10:42:23;;;;;;;0.52;0.52;;;;;;;10.06;70.53;99559.56;5090043;28;20032;-68
2024/02/25 10:44:52;;;;;;;0.90;0.65;;;;;;;10.14;70.41;99550.41;5091069;28;20061;-68
2024/02/25 10:47:20;;;;;;;0.60;0.60;;;;;;;10.18;70.59;99545.03;5088524;28;20404;-68
2024/02/25 10:49:46;;;;;;;0.30;0.30;;;;;;;10.27;70.79;99551.59;5072622;28;20081;-69
2024/02/25 10:52:13;;;;;;;1.92;0.70;;;;;;;10.38;70.33;99554.31;5089860;28;20031;-68
2024/02/25 10:54:41;;;;;;;1.27;0.55;;;;;;;10.45;70.49;99548.97;5089503;28;20361;-68
2024/02/25 10:57:08;;;;;;;0.90;0.75;;;;;;;10.51;68.72;99542.81;5091288;28;20024;-68
2024/02/25 10:59:34;;;;;;;0.60;0.60;;;;;;;10.60;69.55;99548.63;5097028;28;20412;-68
2024/02/25 11:02:00;;;;;;;1.42;0.65;;;;;;;10.57;70.04;99549.38;5091122;28;20032;-68
2024/02/25 11:04:27;;;;;;;0.40;0.40;;;;;;;10.46;68.76;99540.50;5093232;28;20040;-68
2024/02/25 11:06:55;;;;;;;1.05;0.60;;;;;;;10.33;70.04;99539.31;5096942;28;20503;-68
2024/02/25 11:09:22;;;;;;;0.90;0.65;;;;;;;10.31;69.27;99540.84;5091405;28;20505;-68
2024/02/25 11:11:48;;;;;;;0.50;0.50;;;;;;;10.39;69.65;99543.19;5091040;28;20028;-68
2024/02/25 11:14:18;;;;;;;1.73;0.82;;;;;;;10.33;69.11;99539.31;5087898;28;20047;-68
2024/02/25 11:16:46;;;;;;;0.45;0.45;;;;;;;10.18;70.07;99545.03;5088553;28;20039;-68
2024/02/25 11:19:16;;;;;;;0.45;0.45;;;;;;;10.20;70.47;99538.09;5089051;28;20047;-69
2024/02/25 11:21:42;;;;;;;3.58;0.55;;;;;;;10.11;71.55;99535.00;5087493;28;20035;-68
2024/02/25 11:24:12;;;;;;;0.70;0.50;;;;;;;10.21;72.32;99530.81;5092040;28;20138;-68
2024/02/25 11:26:39;;;;;;;1.35;0.60;;;;;;;10.48;71.26;99526.66;5091115;28;20131;-68
2024/02/25 11:29:31;;;;;;;0.35;0.35;;;;;;;10.50;71.01;99532.44;5093329;28;20028;-68
2024/02/25 11:32:01;;;;;;;0.45;0.45;;;;;;;10.40;70.62;99520.50;5090865;28;20039;-69
2024/02/25 11:34:28;;;;;;;0.63;0.60;;;;;;;10.47;70.98;99520.50;5098270;28;20076;-68
2024/02/25 11:36:55;;;;;;;0.73;0.50;;;;;;;10.52;71.27;99522.06;5098641;28;20035;-68